Time;durP1;ratioP1;P1;durP2;ratioP2;P2;SDS_P1;SDS_P2;PMS_P1;PMS_P2;Temp;Humidity;BMP_temperature;BMP_pressure;BME280_temperature;BME280_humidity;BME280_pressure;Samples;Min_cycle;Max_cycle;Signal;HPM_P1;HPM_P2
2021/11/20 00:00:11;;;;;;;5.33;1.95;;;;;;;9.45;75.81;99440.48;1691407;81;21010;-75
2021/11/20 00:02:39;;;;;;;5.33;2.27;;;;;;;9.49;75.76;99430.84;1685076;82;21169;-72
2021/11/20 00:05:07;;;;;;;4.92;1.98;;;;;;;9.52;75.75;99434.19;1685989;83;21497;-73
2021/11/20 00:07:34;;;;;;;4.58;1.95;;;;;;;9.49;75.86;99429.53;1697908;82;21102;-74
2021/11/20 00:10:01;;;;;;;4.42;1.80;;;;;;;9.47;75.93;99422.78;1670899;84;21102;-71
2021/11/20 00:12:30;;;;;;;3.90;1.50;;;;;;;9.45;76.05;99431.28;1685503;83;21077;-73
2021/11/20 00:14:57;;;;;;;4.10;1.65;;;;;;;9.51;76.15;99436.45;1707594;82;21101;-73
2021/11/20 00:17:25;;;;;;;4.60;1.87;;;;;;;9.53;76.29;99437.98;1710807;82;21205;-70
2021/11/20 00:19:54;;;;;;;4.65;1.50;;;;;;;9.52;76.22;99415.31;1707559;82;21128;-70
2021/11/20 00:22:26;;;;;;;3.25;1.40;;;;;;;9.49;76.32;99422.15;1705113;82;21152;-69
2021/11/20 00:25:01;;;;;;;3.98;1.50;;;;;;;9.45;76.41;99430.80;1707611;82;21373;-71
2021/11/20 00:27:34;;;;;;;3.37;1.33;;;;;;;9.44;76.40;99421.25;1679226;84;21101;-68
2021/11/20 00:30:02;;;;;;;3.22;1.22;;;;;;;9.52;76.34;99418.43;1705481;82;21851;-69
2021/11/20 00:32:32;;;;;;;3.17;1.35;;;;;;;9.56;76.32;99402.23;1705563;82;21517;-70
2021/11/20 00:35:05;;;;;;;4.17;1.37;;;;;;;9.58;76.35;99403.41;1710145;81;21134;-74
2021/11/20 00:37:33;;;;;;;2.62;0.90;;;;;;;9.55;76.46;99402.37;1708658;82;21077;-72
2021/11/20 00:40:01;;;;;;;3.40;1.52;;;;;;;9.53;76.62;99402.54;1703609;82;21703;-71
2021/11/20 00:42:28;;;;;;;3.90;1.52;;;;;;;9.57;76.65;99384.20;1683606;83;21653;-72
2021/11/20 00:44:54;;;;;;;4.62;1.75;;;;;;;9.66;76.56;99382.52;1704964;82;21082;-69
2021/11/20 00:47:21;;;;;;;2.92;1.20;;;;;;;9.70;76.54;99377.34;1712909;82;21117;-74
2021/11/20 00:49:50;;;;;;;4.25;1.72;;;;;;;9.75;76.54;99376.44;1709321;82;21104;-68
2021/11/20 00:52:16;;;;;;;3.98;1.57;;;;;;;9.79;76.50;99369.91;1714975;82;21133;-73
2021/11/20 00:54:43;;;;;;;3.95;1.40;;;;;;;9.78;76.56;99377.44;1675953;83;21165;-72
2021/11/20 00:57:10;;;;;;;4.22;1.52;;;;;;;9.75;76.67;99368.55;1687934;83;21077;-70
2021/11/20 00:59:37;;;;;;;4.40;1.50;;;;;;;9.76;76.82;99366.25;1691432;81;21917;-66
2021/11/20 01:02:04;;;;;;;3.70;1.65;;;;;;;9.85;76.63;99350.95;1716589;81;21063;-70
2021/11/20 01:04:32;;;;;;;5.70;2.10;;;;;;;9.92;76.50;99349.05;1703477;82;21099;-69
2021/11/20 01:06:59;;;;;;;6.03;2.10;;;;;;;9.95;76.46;99335.63;1709432;82;21066;-72
2021/11/20 01:09:34;;;;;;;4.30;1.72;;;;;;;9.94;76.54;99338.75;1705811;82;21139;-74
2021/11/20 01:12:10;;;;;;;5.20;2.20;;;;;;;9.92;76.64;99340.70;1706023;82;21169;-66
2021/11/20 01:14:37;;;;;;;5.45;2.33;;;;;;;9.96;76.69;99322.84;1683050;82;21011;-70
2021/11/20 01:17:06;;;;;;;6.00;2.27;;;;;;;10.02;76.57;99322.27;1680358;83;22283;-73
2021/11/20 01:19:33;;;;;;;4.25;1.85;;;;;;;10.08;76.49;99324.80;1708544;82;21046;-75
2021/11/20 01:22:10;;;;;;;5.97;2.75;;;;;;;10.11;76.52;99322.70;1708731;82;21066;-71
2021/11/20 01:24:41;;;;;;;5.60;2.62;;;;;;;10.10;76.63;99307.88;1672972;83;21122;-71
2021/11/20 01:27:09;;;;;;;5.35;2.27;;;;;;;10.09;76.79;99309.38;1664694;82;21046;-71
2021/11/20 01:29:37;;;;;;;5.85;2.35;;;;;;;10.11;76.79;99299.53;1685507;83;21170;-69
2021/11/20 01:32:05;;;;;;;5.58;2.85;;;;;;;10.19;76.66;99287.80;1707179;82;21075;-70
2021/11/20 01:34:34;;;;;;;5.37;2.30;;;;;;;10.22;76.55;99279.13;1705946;82;21047;-71
2021/11/20 01:37:03;;;;;;;5.12;2.12;;;;;;;10.30;76.53;99282.81;1679254;82;21106;-67
2021/11/20 01:39:34;;;;;;;5.42;2.67;;;;;;;10.32;76.45;99269.05;1686836;83;21185;-66
2021/11/20 01:42:07;;;;;;;6.97;3.00;;;;;;;10.31;76.46;99268.70;1699601;82;21014;-70
2021/11/20 01:44:40;;;;;;;6.37;2.92;;;;;;;10.27;76.72;99265.55;1702962;82;21130;-69
2021/11/20 01:47:20;;;;;;;5.65;2.55;;;;;;;10.31;76.69;99268.20;1685586;83;21030;-68
2021/11/20 01:49:57;;;;;;;5.90;2.80;;;;;;;10.38;76.66;99250.88;1705095;82;21507;-71
2021/11/20 01:52:34;;;;;;;5.17;2.52;;;;;;;10.45;76.53;99248.48;1705460;82;21071;-74
2021/11/20 01:55:26;;;;;;;7.05;3.22;;;;;;;10.49;76.59;99243.28;1683604;82;21081;-71
2021/11/20 01:58:21;;;;;;;6.05;3.25;;;;;;;10.50;76.79;99230.45;1707250;84;21069;-70
2021/11/20 02:01:22;;;;;;;7.50;3.45;;;;;;;10.47;77.08;99224.17;1745977;80;21564;-74
2021/11/20 02:04:17;;;;;;;5.60;3.02;;;;;;;10.50;76.99;99233.58;1736663;80;21144;-70
2021/11/20 02:06:55;;;;;;;5.12;2.87;;;;;;;10.55;77.00;99241.84;1697967;81;21081;-71
2021/11/20 02:10:17;;;;;;;8.20;2.87;;;;;;;10.61;76.99;99216.25;1732840;81;21074;-69
2021/11/20 02:12:56;;;;;;;5.22;2.08;;;;;;;10.66;77.01;99207.89;1753994;80;21089;-65
2021/11/20 02:15:35;;;;;;;5.47;2.33;;;;;;;10.68;77.25;99203.32;1733303;81;21050;-71
2021/11/20 02:18:03;;;;;;;5.35;2.55;;;;;;;10.65;77.65;99216.77;1751808;80;21675;-69
2021/11/20 02:20:46;;;;;;;4.60;1.77;;;;;;;10.65;77.84;99197.86;1731721;81;21589;-70
2021/11/20 02:23:13;;;;;;;5.28;2.12;;;;;;;10.72;77.69;99195.45;1739737;80;21113;-67
2021/11/20 02:25:40;;;;;;;5.78;2.45;;;;;;;10.76;77.51;99192.86;1749468;80;21645;-73
2021/11/20 02:28:09;;;;;;;5.55;2.00;;;;;;;10.81;77.23;99212.97;1746724;81;21066;-71
2021/11/20 02:30:44;;;;;;;4.65;1.92;;;;;;;10.87;76.96;99191.28;1723133;81;21137;-68
2021/11/20 02:33:19;;;;;;;4.47;1.90;;;;;;;10.91;76.77;99193.95;1728444;81;21108;-69
2021/11/20 02:35:57;;;;;;;4.75;2.00;;;;;;;10.91;76.75;99188.69;1725331;80;21121;-70
2021/11/20 02:38:34;;;;;;;5.67;2.22;;;;;;;10.94;76.75;99181.81;1753626;80;21034;-72
2021/11/20 02:41:01;;;;;;;4.00;1.60;;;;;;;11.02;76.40;99188.91;1750994;80;21000;-68
2021/11/20 02:43:31;;;;;;;4.33;1.87;;;;;;;11.09;76.16;99183.85;1733912;81;21143;-69
2021/11/20 02:46:00;;;;;;;4.25;1.65;;;;;;;11.11;76.04;99179.25;1703906;81;21112;-67
2021/11/20 02:48:27;;;;;;;4.37;1.90;;;;;;;11.11;76.00;99184.05;1728159;81;21080;-72
2021/11/20 02:51:19;;;;;;;4.78;1.87;;;;;;;11.09;76.01;99179.91;1700990;82;22420;-74
2021/11/20 02:53:49;;;;;;;4.45;1.45;;;;;;;11.15;75.99;99175.34;1735823;80;21443;-68
2021/11/20 02:56:20;;;;;;;4.90;1.98;;;;;;;11.20;75.74;99167.80;1705215;82;21581;-68
2021/11/20 02:58:47;;;;;;;4.92;1.67;;;;;;;11.23;75.52;99178.49;1707708;82;21065;-69
2021/11/20 03:01:19;;;;;;;4.05;1.40;;;;;;;11.25;75.40;99170.78;1719538;82;21047;-71
2021/11/20 03:03:46;;;;;;;4.90;1.65;;;;;;;11.24;75.44;99163.05;1741865;81;21098;-66
2021/11/20 03:06:13;;;;;;;4.50;1.50;;;;;;;11.26;75.34;99157.97;1710337;82;21107;-67
2021/11/20 03:08:39;;;;;;;3.92;1.70;;;;;;;11.31;75.04;99168.85;1725242;81;21141;-69
2021/11/20 03:11:13;;;;;;;4.03;1.50;;;;;;;11.37;74.86;99158.17;1703765;82;21556;-71
2021/11/20 03:13:43;;;;;;;4.92;1.65;;;;;;;11.41;74.75;99162.13;1702407;82;21656;-73
2021/11/20 03:16:12;;;;;;;4.12;1.40;;;;;;;11.41;74.76;99161.30;1743105;80;21137;-72
2021/11/20 03:18:38;;;;;;;3.90;1.42;;;;;;;11.36;75.08;99150.42;1740791;81;21043;-70
2021/11/20 03:21:06;;;;;;;4.03;1.55;;;;;;;11.34;75.18;99162.43;1705822;81;21162;-72
2021/11/20 03:23:38;;;;;;;4.42;1.52;;;;;;;11.39;75.02;99177.27;1752541;80;21412;-71
2021/11/20 03:26:04;;;;;;;6.33;1.60;;;;;;;11.43;74.79;99160.65;1736145;81;21070;-73
2021/11/20 03:28:32;;;;;;;4.25;1.70;;;;;;;11.46;74.73;99145.34;1751799;80;21089;-71
2021/11/20 03:30:59;;;;;;;3.58;1.32;;;;;;;11.45;74.72;99152.12;1699465;81;21129;-71
2021/11/20 03:33:26;;;;;;;5.70;1.72;;;;;;;11.42;74.74;99157.20;1746382;80;21720;-72
2021/11/20 03:35:53;;;;;;;3.87;1.20;;;;;;;11.47;74.73;99153.59;1759424;79;21062;-71
2021/11/20 03:38:22;;;;;;;2.92;0.90;;;;;;;11.53;75.03;99175.84;1748505;80;21128;-69
2021/11/20 03:40:49;;;;;;;4.67;1.17;;;;;;;11.54;75.33;99172.23;1743217;81;21113;-69
2021/11/20 03:43:16;;;;;;;3.98;1.37;;;;;;;11.51;75.78;99183.08;1754164;80;21117;-73
2021/11/20 03:45:44;;;;;;;3.75;1.47;;;;;;;11.50;76.17;99157.73;1735737;81;22830;-74
2021/11/20 03:48:13;;;;;;;3.40;1.02;;;;;;;11.44;76.39;99151.78;1740771;81;21040;-73
2021/11/20 03:50:41;;;;;;;3.33;1.20;;;;;;;11.39;76.63;99144.84;1732994;81;21059;-74
2021/11/20 03:53:09;;;;;;;4.20;1.52;;;;;;;11.44;76.63;99145.19;1713464;81;21101;-71
2021/11/20 03:55:40;;;;;;;3.25;1.40;;;;;;;11.45;76.56;99145.53;1727442;81;21619;-73
2021/11/20 03:58:06;;;;;;;3.70;1.30;;;;;;;11.49;76.39;99145.53;1736595;81;21087;-74
2021/11/20 04:00:37;;;;;;;3.37;1.27;;;;;;;11.46;76.13;99156.39;1733503;81;21097;-70
2021/11/20 04:03:05;;;;;;;3.47;1.17;;;;;;;11.42;76.16;99141.89;1724424;81;21086;-68
2021/11/20 04:05:33;;;;;;;5.15;1.45;;;;;;;11.40;76.03;99150.42;1721342;81;21097;-72
2021/11/20 04:08:02;;;;;;;2.85;0.90;;;;;;;11.43;75.63;99140.89;1716532;81;21066;-68
2021/11/20 04:10:30;;;;;;;3.27;1.10;;;;;;;11.49;75.01;99153.44;1702066;81;21102;-68
2021/11/20 04:12:57;;;;;;;2.72;0.95;;;;;;;11.51;74.75;99142.25;1718080;81;21129;-70
2021/11/20 04:15:25;;;;;;;4.78;1.30;;;;;;;11.53;74.20;99141.59;1715873;82;22319;-71
2021/11/20 04:17:53;;;;;;;3.65;1.20;;;;;;;11.52;74.06;99137.32;1723928;81;21141;-70
2021/11/20 04:20:22;;;;;;;2.92;0.80;;;;;;;11.53;73.82;99147.70;1712854;81;21533;-73
2021/11/20 04:22:49;;;;;;;6.17;3.15;;;;;;;11.61;73.31;99144.75;1716064;81;21838;-70
2021/11/20 04:25:17;;;;;;;6.15;3.08;;;;;;;11.67;73.37;99144.94;1668570;83;21110;-69
2021/11/20 04:27:46;;;;;;;6.50;2.40;;;;;;;11.70;73.18;99138.04;1693086;82;21598;-70
2021/11/20 04:30:29;;;;;;;5.95;2.22;;;;;;;11.68;73.05;99147.08;1664340;81;21082;-71
2021/11/20 04:32:57;;;;;;;7.30;3.22;;;;;;;11.63;72.85;99145.41;1669046;81;21161;-71
2021/11/20 04:35:24;;;;;;;10.60;4.62;;;;;;;11.64;72.69;99133.40;1715007;81;21046;-68
2021/11/20 04:37:51;;;;;;;10.13;3.83;;;;;;;11.69;72.41;99142.97;1690409;81;21648;-68
2021/11/20 04:40:20;;;;;;;8.30;3.58;;;;;;;11.70;72.22;99144.62;1718191;81;21090;-67
2021/11/20 04:42:47;;;;;;;8.80;4.55;;;;;;;11.69;72.28;99139.01;1709809;81;21117;-64
2021/11/20 04:45:16;;;;;;;8.03;3.83;;;;;;;11.66;72.07;99149.05;1690408;81;21134;-70
2021/11/20 04:47:44;;;;;;;6.10;2.05;;;;;;;11.65;72.17;99153.98;1693331;81;21106;-66
2021/11/20 04:50:15;;;;;;;4.58;1.12;;;;;;;11.66;71.90;99148.55;1712320;81;21117;-68
2021/11/20 04:52:42;;;;;;;4.03;1.00;;;;;;;11.70;71.58;99148.58;1714652;81;21123;-74
2021/11/20 04:55:10;;;;;;;6.87;2.25;;;;;;;11.72;71.20;99137.88;1715297;81;21567;-67
2021/11/20 04:57:38;;;;;;;4.65;1.75;;;;;;;11.75;71.17;99145.94;1716117;81;21078;-66
2021/11/20 05:00:19;;;;;;;3.85;1.42;;;;;;;11.70;70.93;99148.58;1719300;81;21100;-72
2021/11/20 05:02:48;;;;;;;4.67;1.60;;;;;;;11.71;70.54;99159.94;1706158;81;21139;-70
2021/11/20 05:05:16;;;;;;;3.77;1.37;;;;;;;11.81;70.34;99167.20;1727733;81;21090;-78
2021/11/20 05:07:44;;;;;;;6.65;2.12;;;;;;;11.80;70.25;99158.14;1725506;81;21093;-74
2021/11/20 05:10:11;;;;;;;4.83;1.42;;;;;;;11.78;70.27;99174.11;1731243;81;21101;-72
2021/11/20 05:12:38;;;;;;;3.70;1.32;;;;;;;11.78;70.17;99179.89;1738136;81;22235;-72
2021/11/20 05:15:08;;;;;;;4.90;1.00;;;;;;;11.78;70.00;99175.93;1728584;81;21083;-75
2021/11/20 05:17:35;;;;;;;3.98;1.40;;;;;;;11.87;69.65;99180.26;1700400;81;21105;-73
2021/11/20 05:20:04;;;;;;;4.40;1.57;;;;;;;11.91;69.46;99185.55;1706677;82;21069;-75
2021/11/20 05:22:31;;;;;;;3.50;1.32;;;;;;;11.93;69.41;99190.17;1702074;82;21069;-75
2021/11/20 05:24:58;;;;;;;5.67;1.60;;;;;;;11.93;69.25;99186.22;1700102;82;22117;-74
2021/11/20 05:27:24;;;;;;;5.05;1.40;;;;;;;11.89;68.87;99199.37;1706156;82;21624;-75
2021/11/20 05:30:16;;;;;;;4.50;1.70;;;;;;;11.93;68.91;99198.08;1673956;82;21148;-73
2021/11/20 05:32:20;;;;;;;4.17;1.77;;;;;;;11.98;68.63;99194.97;1713792;81;21141;-75
2021/11/20 05:34:47;;;;;;;3.90;1.30;;;;;;;11.95;68.46;99197.92;1705433;82;21030;-72
2021/11/20 05:37:15;;;;;;;5.17;1.80;;;;;;;11.91;68.72;99197.42;1727904;81;21027;-69
2021/11/20 05:39:42;;;;;;;5.62;1.37;;;;;;;11.88;68.64;99214.84;1729128;81;21078;-66
2021/11/20 05:42:09;;;;;;;4.37;1.70;;;;;;;11.89;69.04;99220.45;1728904;81;21145;-66
2021/11/20 05:44:36;;;;;;;4.30;1.40;;;;;;;11.97;69.05;99217.03;1693400;82;21730;-71
2021/11/20 05:47:05;;;;;;;5.60;2.00;;;;;;;12.00;69.25;99225.47;1671685;83;21780;-67
2021/11/20 05:49:37;;;;;;;7.00;1.50;;;;;;;11.95;69.85;99223.78;1703240;82;21012;-72
2021/11/20 05:52:07;;;;;;;6.15;1.62;;;;;;;11.89;70.23;99219.95;1723316;81;20992;-59
2021/11/20 05:54:35;;;;;;;4.28;1.80;;;;;;;11.84;70.47;99235.42;1706984;82;20958;-58
2021/11/20 05:57:05;;;;;;;6.80;1.87;;;;;;;11.86;70.32;99232.63;1722757;81;21130;-68
2021/11/20 05:59:32;;;;;;;5.70;2.05;;;;;;;11.86;70.36;99236.08;1706751;82;21089;-70
2021/11/20 06:02:00;;;;;;;3.72;1.27;;;;;;;11.80;70.30;99235.89;1731926;81;21738;-60
2021/11/20 06:04:31;;;;;;;4.75;1.42;;;;;;;11.76;70.25;99237.20;1710777;82;21070;-66
2021/11/20 06:06:59;;;;;;;3.52;1.32;;;;;;;11.71;69.94;99230.58;1710608;82;21109;-66
2021/11/20 06:09:25;;;;;;;8.28;1.75;;;;;;;11.77;69.25;99233.09;1739395;81;21087;-70
2021/11/20 06:11:52;;;;;;;6.92;1.80;;;;;;;11.80;68.47;99231.94;1731601;81;21587;-68
2021/11/20 06:14:21;;;;;;;5.35;1.50;;;;;;;11.80;68.40;99227.52;1734919;81;21086;-69
2021/11/20 06:16:47;;;;;;;4.00;1.42;;;;;;;11.76;68.18;99231.94;1740271;81;21111;-74
2021/11/20 06:19:15;;;;;;;4.58;1.50;;;;;;;11.73;67.87;99225.66;1720640;81;21137;-68
2021/11/20 06:21:42;;;;;;;7.28;2.20;;;;;;;11.78;67.84;99218.09;1738987;80;21108;-66
2021/11/20 06:24:10;;;;;;;4.95;1.20;;;;;;;11.88;67.49;99230.66;1754977;80;21041;-68
2021/11/20 06:26:37;;;;;;;4.55;1.47;;;;;;;11.90;67.24;99225.56;1744338;80;21107;-67
2021/11/20 06:29:04;;;;;;;3.05;1.15;;;;;;;11.90;66.99;99223.41;1730568;81;21070;-68
2021/11/20 06:31:33;;;;;;;4.97;1.75;;;;;;;11.86;66.65;99228.17;1717154;81;21667;-69
2021/11/20 06:34:07;;;;;;;3.58;1.30;;;;;;;11.85;66.56;99226.54;1722285;81;21069;-66
2021/11/20 06:36:39;;;;;;;2.98;1.22;;;;;;;11.83;66.49;99229.80;1648458;81;21580;-68
2021/11/20 06:39:07;;;;;;;5.12;1.42;;;;;;;11.91;66.44;99229.05;1700219;81;21057;-70
2021/11/20 06:41:35;;;;;;;6.85;1.50;;;;;;;11.92;66.02;99226.76;1723488;81;21576;-71
2021/11/20 06:44:03;;;;;;;3.80;1.45;;;;;;;11.91;66.19;99225.09;1707457;81;21075;-74
2021/11/20 06:46:30;;;;;;;4.60;1.65;;;;;;;11.92;66.16;99224.59;1726432;81;21023;-67
2021/11/20 06:48:58;;;;;;;4.58;1.62;;;;;;;11.93;65.82;99228.89;1725414;81;21073;-71
2021/11/20 06:51:26;;;;;;;4.80;1.55;;;;;;;11.92;65.59;99235.14;1723090;81;21104;-67
2021/11/20 06:54:12;;;;;;;4.90;1.67;;;;;;;11.99;65.24;99209.81;1727405;81;21116;-68
2021/11/20 06:57:09;;;;;;;4.53;1.65;;;;;;;12.08;64.51;99226.78;1729543;81;21355;-69
2021/11/20 07:02:37;;;;;;;5.83;2.22;;;;;;;12.05;64.67;99221.86;1704173;81;21122;-69
2021/11/20 07:05:06;;;;;;;5.15;1.67;;;;;;;12.05;65.06;99231.09;1750611;80;20995;-69
2021/11/20 07:07:34;;;;;;;4.00;1.37;;;;;;;12.08;64.75;99229.42;1728971;81;21750;-71
2021/11/20 07:10:03;;;;;;;4.35;1.52;;;;;;;12.18;64.37;99228.47;1714015;82;21078;-68
2021/11/20 07:12:30;;;;;;;5.65;1.42;;;;;;;12.23;64.09;99216.44;1712406;82;21090;-64
2021/11/20 07:14:57;;;;;;;4.60;1.35;;;;;;;12.25;63.91;99217.59;1680423;82;21153;-71
2021/11/20 07:17:25;;;;;;;5.35;1.52;;;;;;;12.25;63.41;99235.59;1736496;81;21105;-69
2021/11/20 07:20:07;;;;;;;4.62;1.55;;;;;;;12.28;63.22;99226.51;1742624;80;21067;-67
2021/11/20 07:22:52;;;;;;;4.03;1.57;;;;;;;12.30;62.80;99244.81;1743485;80;21086;-62
2021/11/20 07:25:19;;;;;;;5.20;2.00;;;;;;;12.30;63.02;99237.72;1715922;82;21144;-73
2021/11/20 07:27:47;;;;;;;5.35;1.60;;;;;;;12.43;62.69;99239.89;1746047;81;21110;-69
2021/11/20 07:30:15;;;;;;;3.42;1.40;;;;;;;12.55;62.07;99234.62;1750216;80;22320;-69
2021/11/20 07:32:47;;;;;;;4.67;1.80;;;;;;;12.58;61.20;99244.85;1733928;81;21624;-71
2021/11/20 07:35:33;;;;;;;4.62;1.50;;;;;;;12.61;61.33;99239.75;1735343;81;21125;-71
2021/11/20 07:38:02;;;;;;;6.50;1.40;;;;;;;12.59;61.19;99232.00;1725783;80;21172;-71
2021/11/20 07:40:31;;;;;;;5.12;1.67;;;;;;;12.59;60.55;99246.98;1731022;81;21568;-67
2021/11/20 07:42:58;;;;;;;4.50;1.17;;;;;;;12.57;60.00;99229.18;1736768;81;21486;-72
2021/11/20 07:45:44;;;;;;;6.15;1.77;;;;;;;12.57;60.21;99227.36;1739779;81;21857;-69
2021/11/20 07:48:19;;;;;;;5.97;1.62;;;;;;;12.56;59.57;99236.78;1701976;81;21580;-70
2021/11/20 07:50:46;;;;;;;6.33;1.67;;;;;;;12.58;60.03;99238.75;1734316;81;21375;-71
2021/11/20 07:53:19;;;;;;;5.47;1.65;;;;;;;12.62;58.98;99236.11;1712945;81;21027;-68
2021/11/20 07:55:46;;;;;;;7.97;2.20;;;;;;;12.70;58.32;99238.75;1717688;80;21074;-70
2021/11/20 07:58:15;;;;;;;4.60;1.42;;;;;;;12.71;58.73;99244.38;1743966;81;21042;-69
2021/11/20 08:00:41;;;;;;;9.48;1.72;;;;;;;12.66;57.58;99262.98;1722372;80;21105;-69
2021/11/20 08:03:09;;;;;;;5.08;1.55;;;;;;;12.64;57.86;99244.67;1763295;79;21082;-70
2021/11/20 08:05:41;;;;;;;4.78;1.57;;;;;;;12.62;58.07;99245.34;1750371;80;21060;-70
2021/11/20 08:08:10;;;;;;;6.40;1.77;;;;;;;12.61;57.88;99251.12;1748475;80;21122;-69
2021/11/20 08:10:50;;;;;;;4.62;1.20;;;;;;;12.59;57.14;99279.97;1727472;80;21407;-71
2021/11/20 08:13:17;;;;;;;5.80;1.60;;;;;;;12.57;56.79;99270.89;1753448;80;21121;-71
2021/11/20 08:15:54;;;;;;;7.90;2.08;;;;;;;12.53;56.61;99276.18;1747669;80;21120;-69
2021/11/20 08:18:21;;;;;;;4.33;1.45;;;;;;;12.54;55.98;99276.52;1755249;80;21050;-69
2021/11/20 08:21:07;;;;;;;5.20;1.57;;;;;;;12.57;56.33;99281.95;1730237;80;21128;-69
2021/11/20 08:23:39;;;;;;;6.37;1.75;;;;;;;12.56;56.48;99296.97;1722245;81;21066;-68
2021/11/20 08:26:06;;;;;;;6.60;1.90;;;;;;;12.51;55.66;99289.19;1687947;83;21121;-69
2021/11/20 08:28:34;;;;;;;6.30;1.85;;;;;;;12.51;55.71;99293.14;1675979;84;21101;-69
2021/11/20 08:31:03;;;;;;;6.72;1.25;;;;;;;12.53;55.67;99307.03;1757933;80;22260;-69
2021/11/20 08:33:31;;;;;;;7.78;1.45;;;;;;;12.53;54.37;99279.32;1751636;80;21246;-71
2021/11/20 08:36:09;;;;;;;3.92;1.10;;;;;;;12.56;55.38;99293.52;1745835;80;21141;-71
2021/11/20 08:38:39;;;;;;;6.53;1.72;;;;;;;12.59;54.34;99294.02;1754342;80;21137;-69
2021/11/20 08:41:08;;;;;;;6.37;1.95;;;;;;;12.64;54.05;99306.22;1764028;79;21134;-67
2021/11/20 08:43:36;;;;;;;5.28;1.55;;;;;;;12.69;53.63;99308.86;1730985;81;21065;-71
2021/11/20 08:46:06;;;;;;;5.60;1.50;;;;;;;12.72;53.60;99291.38;1752731;80;21142;-69
2021/11/20 08:48:33;;;;;;;6.00;1.47;;;;;;;12.75;53.12;99277.36;1766434;79;21387;-70
2021/11/20 08:51:07;;;;;;;6.08;1.35;;;;;;;12.80;53.11;99297.48;1760368;80;21003;-66
2021/11/20 08:53:35;;;;;;;8.00;1.45;;;;;;;12.82;51.44;99295.50;1755613;80;21556;-67
2021/11/20 08:56:01;;;;;;;11.95;1.77;;;;;;;12.84;51.42;99300.63;1736169;80;21060;-65
2021/11/20 08:58:35;;;;;;;7.90;1.70;;;;;;;12.85;50.23;99267.14;1754109;80;22678;-70
2021/11/20 09:01:16;;;;;;;9.68;1.72;;;;;;;12.87;51.09;99287.59;1756272;80;21125;-67
2021/11/20 09:04:07;;;;;;;6.97;1.80;;;;;;;12.86;51.21;99279.34;1745793;80;21077;-69
2021/11/20 09:06:50;;;;;;;5.95;1.22;;;;;;;12.82;50.53;99269.10;1744223;80;21121;-68
2021/11/20 09:09:33;;;;;;;4.92;1.47;;;;;;;12.83;51.01;99269.95;1730032;79;21133;-68
2021/11/20 09:12:14;;;;;;;4.70;1.12;;;;;;;12.89;50.29;99273.73;1734531;81;21245;-65
2021/11/20 09:14:55;;;;;;;6.97;1.77;;;;;;;12.95;50.86;99281.00;1724215;80;21135;-65
2021/11/20 09:17:24;;;;;;;5.58;1.20;;;;;;;12.96;50.54;99270.75;1723852;81;21580;-68
2021/11/20 09:19:51;;;;;;;4.20;1.32;;;;;;;12.96;51.20;99270.75;1749403;80;21670;-64
2021/11/20 09:22:19;;;;;;;7.25;1.50;;;;;;;12.91;50.71;99299.00;1748550;80;21097;-66
2021/11/20 09:24:50;;;;;;;4.53;1.52;;;;;;;12.90;50.47;99278.03;1745324;80;21109;-63
2021/11/20 09:27:25;;;;;;;6.07;1.63;;;;;;;12.90;50.42;99296.02;1744103;80;21093;-67
2021/11/20 09:29:54;;;;;;;5.50;1.42;;;;;;;12.90;50.56;99283.31;1665228;83;21161;-67
2021/11/20 09:32:22;;;;;;;5.72;1.52;;;;;;;12.89;50.21;99288.25;1669396;83;21138;-65
2021/11/20 09:34:50;;;;;;;4.75;1.40;;;;;;;12.90;50.13;99305.75;1742573;79;21093;-68
2021/11/20 09:37:27;;;;;;;6.40;1.30;;;;;;;12.90;49.15;99309.22;1737201;80;21133;-68
2021/11/20 09:39:56;;;;;;;8.43;1.72;;;;;;;12.94;49.65;99288.58;1762254;79;21168;-67
2021/11/20 09:42:43;;;;;;;7.17;1.75;;;;;;;12.94;48.31;99281.48;1752614;80;21114;-65
2021/11/20 09:45:17;;;;;;;11.75;2.00;;;;;;;12.92;48.66;99283.47;1722947;81;21148;-69
2021/11/20 09:47:49;;;;;;;10.82;1.98;;;;;;;12.88;48.34;99266.31;1751015;80;21121;-66
2021/11/20 09:50:26;;;;;;;4.45;1.12;;;;;;;12.86;47.95;99280.66;1753726;81;21690;-66
2021/11/20 09:52:53;;;;;;;5.53;1.22;;;;;;;12.90;47.66;99282.00;1745338;81;21132;-68
2021/11/20 10:17:44;;;;;;;5.35;1.72;;;;;;;13.81;44.07;99284.84;1831456;77;22799;-66
2021/11/20 10:20:49;;;;;;;5.42;1.37;;;;;;;13.65;43.64;99279.59;1794354;78;21706;-68
2021/11/20 10:23:52;;;;;;;4.45;1.32;;;;;;;13.62;43.39;99272.03;1769077;78;21640;-67
2021/11/20 10:29:21;;;;;;;5.72;1.12;;;;;;;13.56;42.87;99284.90;1793851;78;21990;-68
2021/11/20 10:43:21;;;;;;;9.80;2.25;;;;;;;14.63;42.33;99308.28;1821589;77;22308;-67
2021/11/20 10:46:23;;;;;;;11.97;1.60;;;;;;;14.55;42.03;99305.65;1774635;78;22817;-66
2021/11/20 10:49:13;;;;;;;6.50;1.32;;;;;;;14.37;41.73;99299.30;1779299;80;21098;-67
2021/11/20 10:52:07;;;;;;;9.50;1.10;;;;;;;14.15;41.26;99310.16;1751962;78;21054;-66
2021/11/20 10:54:57;;;;;;;5.75;1.17;;;;;;;13.92;41.10;99303.49;1779120;79;21209;-68
2021/11/20 10:58:07;;;;;;;4.50;1.22;;;;;;;13.79;40.88;99292.13;1572044;89;21196;-68
2021/11/20 11:00:58;;;;;;;6.62;0.90;;;;;;;13.72;41.67;99309.67;1669702;81;21073;-68
2021/11/20 11:03:48;;;;;;;8.33;1.55;;;;;;;13.64;41.50;99319.75;1727751;81;21140;-68
2021/11/20 11:06:45;;;;;;;6.92;1.70;;;;;;;13.50;41.65;99318.62;1703379;81;21106;-67
2021/11/20 11:09:38;;;;;;;7.50;1.72;;;;;;;13.43;42.27;99335.31;1698330;83;21081;-67
2021/11/20 11:12:36;;;;;;;9.73;1.32;;;;;;;13.33;42.62;99336.80;1737423;81;21055;-67
2021/11/20 11:15:17;;;;;;;7.50;1.25;;;;;;;13.24;42.01;99363.69;1722938;83;21102;-67
2021/11/20 11:18:19;;;;;;;11.63;1.95;;;;;;;13.12;41.69;99376.40;1718059;81;21056;-64
2021/11/20 11:21:24;;;;;;;6.62;1.60;;;;;;;13.11;41.61;99345.71;1721693;81;21486;-66
2021/11/20 11:24:31;;;;;;;4.62;1.20;;;;;;;13.14;41.47;99337.94;1790593;79;21034;-65
2021/11/20 11:27:17;;;;;;;5.17;1.12;;;;;;;13.18;41.01;99349.34;1781187;79;21075;-69
2021/11/20 11:30:09;;;;;;;9.50;1.12;;;;;;;13.20;41.09;99360.56;1794830;78;21351;-69
2021/11/20 11:32:41;;;;;;;7.97;1.65;;;;;;;13.18;41.19;99359.91;1780655;78;21013;-69
2021/11/20 11:35:26;;;;;;;6.45;1.50;;;;;;;13.12;41.22;99379.04;1785489;78;22073;-69
2021/11/20 11:38:19;;;;;;;5.65;1.50;;;;;;;13.22;41.46;99382.84;1747533;80;21034;-69
2021/11/20 11:41:23;;;;;;;5.25;1.52;;;;;;;13.15;41.79;99348.84;1786252;79;21109;-69
2021/11/20 11:44:11;;;;;;;7.25;1.15;;;;;;;13.30;42.16;99380.21;1789340;78;21573;-69
2021/11/20 11:47:20;;;;;;;7.80;1.67;;;;;;;13.15;42.66;99356.77;1784351;78;21027;-69
2021/11/20 11:50:04;;;;;;;5.22;1.27;;;;;;;13.05;42.19;99380.69;1723073;80;21088;-70
2021/11/20 11:52:54;;;;;;;3.60;0.98;;;;;;;12.99;42.00;99358.89;1746059;80;21090;-69
2021/11/20 11:55:32;;;;;;;8.10;1.82;;;;;;;12.97;41.27;99364.83;1695841;82;21924;-69
2021/11/20 11:58:30;;;;;;;7.50;1.25;;;;;;;12.99;40.99;99362.38;1726711;81;21658;-69
2021/11/20 12:01:11;;;;;;;3.92;0.93;;;;;;;13.00;40.32;99368.47;1735126;81;21030;-68
2021/11/20 12:03:47;;;;;;;4.87;1.30;;;;;;;12.99;40.43;99378.22;1726397;81;21629;-69
2021/11/20 12:06:25;;;;;;;5.20;1.37;;;;;;;12.98;40.31;99377.88;1735211;81;22110;-69
2021/11/20 12:09:00;;;;;;;4.55;0.93;;;;;;;12.96;40.05;99373.73;1726343;81;21162;-70
2021/11/20 12:11:35;;;;;;;3.77;1.10;;;;;;;12.96;40.04;99391.74;1722489;81;21351;-69
2021/11/20 12:14:22;;;;;;;8.40;1.37;;;;;;;12.96;39.86;99387.78;1726025;81;21713;-69
2021/11/20 12:17:03;;;;;;;6.78;1.45;;;;;;;12.97;40.01;99389.41;1720340;81;21224;-69
2021/11/20 12:19:48;;;;;;;5.95;1.00;;;;;;;13.01;39.25;99387.27;1698068;82;21006;-69
2021/11/20 12:22:42;;;;;;;4.67;1.20;;;;;;;13.06;39.30;99391.56;1725020;81;20958;-70
2021/11/20 12:25:32;;;;;;;7.95;1.50;;;;;;;13.08;39.01;99389.61;1726900;81;21010;-70
2021/11/20 12:28:04;;;;;;;6.22;1.30;;;;;;;13.13;39.24;99403.16;1726975;81;22375;-69
2021/11/20 12:31:08;;;;;;;4.25;1.12;;;;;;;13.16;38.79;99390.09;1719613;82;20923;-69
2021/11/20 12:34:02;;;;;;;7.37;1.47;;;;;;;13.40;39.00;99411.79;1726281;81;20893;-68
2021/11/20 12:37:21;;;;;;;5.28;1.22;;;;;;;13.59;38.50;99424.34;1729419;82;21042;-69
2021/11/20 12:39:56;;;;;;;6.15;1.70;;;;;;;13.46;38.34;99423.51;1746239;80;21092;-69
2021/11/20 12:42:58;;;;;;;4.30;1.00;;;;;;;13.33;39.10;99425.30;1717163;82;21058;-69
2021/11/20 12:45:42;;;;;;;10.70;1.75;;;;;;;13.85;38.28;99420.17;1639036;86;21127;-69